sensor_id;sensor_type;location;lat;lon;timestamp;P1;durP1;ratioP1;P2;durP2;ratioP2
8656;SDS011;4366;50.764;7.184;2023-09-30T00:01:38;2.87;;;2.07;;
8656;SDS011;4366;50.764;7.184;2023-09-30T00:06:40;2.77;;;2.47;;
8656;SDS011;4366;50.764;7.184;2023-09-30T00:11:41;2.57;;;2.17;;
8656;SDS011;4366;50.764;7.184;2023-09-30T00:16:43;4.60;;;2.83;;
8656;SDS011;4366;50.764;7.184;2023-09-30T00:21:46;4.10;;;2.43;;
8656;SDS011;4366;50.764;7.184;2023-09-30T00:26:47;2.57;;;2.33;;
8656;SDS011;4366;50.764;7.184;2023-09-30T00:31:49;3.97;;;2.67;;
8656;SDS011;4366;50.764;7.184;2023-09-30T00:36:51;3.40;;;2.80;;
8656;SDS011;4366;50.764;7.184;2023-09-30T00:41:53;2.50;;;2.30;;
8656;SDS011;4366;50.764;7.184;2023-09-30T00:46:55;3.43;;;2.50;;
8656;SDS011;4366;50.764;7.184;2023-09-30T00:51:58;4.83;;;2.40;;
8656;SDS011;4366;50.764;7.184;2023-09-30T00:57:00;4.20;;;2.53;;
8656;SDS011;4366;50.764;7.184;2023-09-30T01:02:03;5.37;;;2.60;;
8656;SDS011;4366;50.764;7.184;2023-09-30T01:07:07;2.80;;;2.50;;
8656;SDS011;4366;50.764;7.184;2023-09-30T01:12:09;3.37;;;2.50;;
8656;SDS011;4366;50.764;7.184;2023-09-30T01:17:10;4.33;;;2.93;;
8656;SDS011;4366;50.764;7.184;2023-09-30T01:22:15;2.83;;;2.53;;
8656;SDS011;4366;50.764;7.184;2023-09-30T01:27:17;2.20;;;2.10;;
8656;SDS011;4366;50.764;7.184;2023-09-30T01:32:20;2.70;;;2.50;;
8656;SDS011;4366;50.764;7.184;2023-09-30T01:37:22;3.83;;;2.20;;
8656;SDS011;4366;50.764;7.184;2023-09-30T01:42:29;3.37;;;2.23;;
8656;SDS011;4366;50.764;7.184;2023-09-30T01:47:30;2.47;;;2.27;;
8656;SDS011;4366;50.764;7.184;2023-09-30T01:52:32;2.97;;;2.50;;
8656;SDS011;4366;50.764;7.184;2023-09-30T01:57:34;3.03;;;2.47;;
8656;SDS011;4366;50.764;7.184;2023-09-30T02:02:36;3.63;;;2.60;;
8656;SDS011;4366;50.764;7.184;2023-09-30T02:07:38;3.00;;;2.60;;
8656;SDS011;4366;50.764;7.184;2023-09-30T02:12:39;3.90;;;2.60;;
8656;SDS011;4366;50.764;7.184;2023-09-30T02:17:42;2.53;;;2.20;;
8656;SDS011;4366;50.764;7.184;2023-09-30T02:22:48;3.73;;;2.40;;
8656;SDS011;4366;50.764;7.184;2023-09-30T02:27:50;2.97;;;2.40;;
8656;SDS011;4366;50.764;7.184;2023-09-30T02:32:52;3.77;;;2.40;;
8656;SDS011;4366;50.764;7.184;2023-09-30T02:37:54;3.73;;;2.50;;
8656;SDS011;4366;50.764;7.184;2023-09-30T02:42:56;2.53;;;2.33;;
8656;SDS011;4366;50.764;7.184;2023-09-30T02:47:58;4.33;;;2.30;;
8656;SDS011;4366;50.764;7.184;2023-09-30T02:53:00;2.73;;;2.53;;
8656;SDS011;4366;50.764;7.184;2023-09-30T02:58:02;3.40;;;2.77;;
8656;SDS011;4366;50.764;7.184;2023-09-30T03:03:04;6.20;;;2.93;;
8656;SDS011;4366;50.764;7.184;2023-09-30T03:08:06;2.57;;;2.20;;
8656;SDS011;4366;50.764;7.184;2023-09-30T03:13:08;3.00;;;2.47;;
8656;SDS011;4366;50.764;7.184;2023-09-30T03:18:10;2.60;;;2.40;;
8656;SDS011;4366;50.764;7.184;2023-09-30T03:23:12;3.13;;;2.77;;
8656;SDS011;4366;50.764;7.184;2023-09-30T03:28:15;3.20;;;2.33;;
8656;SDS011;4366;50.764;7.184;2023-09-30T03:33:17;2.90;;;2.70;;
8656;SDS011;4366;50.764;7.184;2023-09-30T03:38:19;4.10;;;3.03;;
8656;SDS011;4366;50.764;7.184;2023-09-30T03:43:21;3.00;;;2.70;;
8656;SDS011;4366;50.764;7.184;2023-09-30T03:48:24;3.10;;;2.80;;
8656;SDS011;4366;50.764;7.184;2023-09-30T03:53:26;2.70;;;2.50;;
8656;SDS011;4366;50.764;7.184;2023-09-30T03:58:28;6.77;;;3.23;;
8656;SDS011;4366;50.764;7.184;2023-09-30T04:03:30;6.53;;;3.37;;
8656;SDS011;4366;50.764;7.184;2023-09-30T04:08:35;5.30;;;3.33;;
8656;SDS011;4366;50.764;7.184;2023-09-30T04:13:37;3.20;;;2.90;;
8656;SDS011;4366;50.764;7.184;2023-09-30T04:18:38;4.33;;;3.40;;
8656;SDS011;4366;50.764;7.184;2023-09-30T04:23:42;4.60;;;3.43;;
8656;SDS011;4366;50.764;7.184;2023-09-30T04:28:44;3.60;;;2.87;;
8656;SDS011;4366;50.764;7.184;2023-09-30T04:33:47;4.33;;;2.90;;
8656;SDS011;4366;50.764;7.184;2023-09-30T04:38:49;3.90;;;3.50;;
8656;SDS011;4366;50.764;7.184;2023-09-30T04:43:51;3.70;;;2.63;;
8656;SDS011;4366;50.764;7.184;2023-09-30T04:48:54;3.63;;;3.33;;
8656;SDS011;4366;50.764;7.184;2023-09-30T04:53:55;5.70;;;3.87;;
8656;SDS011;4366;50.764;7.184;2023-09-30T04:58:59;4.83;;;3.73;;
8656;SDS011;4366;50.764;7.184;2023-09-30T05:04:00;4.03;;;3.33;;
8656;SDS011;4366;50.764;7.184;2023-09-30T05:09:02;3.40;;;2.97;;
8656;SDS011;4366;50.764;7.184;2023-09-30T05:14:04;3.80;;;3.10;;
8656;SDS011;4366;50.764;7.184;2023-09-30T05:19:06;5.33;;;3.67;;
8656;SDS011;4366;50.764;7.184;2023-09-30T05:24:09;5.83;;;3.77;;
8656;SDS011;4366;50.764;7.184;2023-09-30T05:29:10;6.30;;;3.37;;
8656;SDS011;4366;50.764;7.184;2023-09-30T05:34:12;3.70;;;3.30;;
8656;SDS011;4366;50.764;7.184;2023-09-30T05:39:14;3.53;;;3.13;;
8656;SDS011;4366;50.764;7.184;2023-09-30T05:44:20;4.70;;;3.00;;
8656;SDS011;4366;50.764;7.184;2023-09-30T05:49:23;5.77;;;3.27;;
8656;SDS011;4366;50.764;7.184;2023-09-30T05:54:25;3.07;;;2.77;;
8656;SDS011;4366;50.764;7.184;2023-09-30T05:59:26;5.63;;;3.77;;
8656;SDS011;4366;50.764;7.184;2023-09-30T06:04:29;4.03;;;3.40;;
8656;SDS011;4366;50.764;7.184;2023-09-30T06:09:31;4.77;;;3.70;;
8656;SDS011;4366;50.764;7.184;2023-09-30T06:14:33;4.97;;;3.47;;
8656;SDS011;4366;50.764;7.184;2023-09-30T06:19:35;4.80;;;3.87;;
8656;SDS011;4366;50.764;7.184;2023-09-30T06:24:39;4.93;;;3.90;;
8656;SDS011;4366;50.764;7.184;2023-09-30T06:29:40;5.07;;;4.17;;
8656;SDS011;4366;50.764;7.184;2023-09-30T06:34:44;5.90;;;3.90;;
8656;SDS011;4366;50.764;7.184;2023-09-30T06:39:46;5.50;;;3.83;;
8656;SDS011;4366;50.764;7.184;2023-09-30T06:44:50;6.07;;;4.20;;
8656;SDS011;4366;50.764;7.184;2023-09-30T06:49:51;10.63;;;5.20;;
8656;SDS011;4366;50.764;7.184;2023-09-30T06:54:53;7.63;;;5.00;;
8656;SDS011;4366;50.764;7.184;2023-09-30T06:59:55;9.23;;;4.70;;
8656;SDS011;4366;50.764;7.184;2023-09-30T07:04:57;8.70;;;4.80;;
8656;SDS011;4366;50.764;7.184;2023-09-30T07:09:58;5.97;;;4.10;;
8656;SDS011;4366;50.764;7.184;2023-09-30T07:15:01;7.20;;;4.33;;
8656;SDS011;4366;50.764;7.184;2023-09-30T07:20:04;7.37;;;4.37;;
8656;SDS011;4366;50.764;7.184;2023-09-30T07:25:07;6.73;;;4.80;;
8656;SDS011;4366;50.764;7.184;2023-09-30T07:30:09;8.40;;;5.07;;
8656;SDS011;4366;50.764;7.184;2023-09-30T07:35:13;10.30;;;4.77;;
8656;SDS011;4366;50.764;7.184;2023-09-30T07:40:18;7.93;;;5.17;;
8656;SDS011;4366;50.764;7.184;2023-09-30T07:45:20;9.23;;;5.47;;
8656;SDS011;4366;50.764;7.184;2023-09-30T07:50:22;7.67;;;4.87;;
8656;SDS011;4366;50.764;7.184;2023-09-30T07:55:24;10.00;;;5.87;;
8656;SDS011;4366;50.764;7.184;2023-09-30T08:00:25;8.43;;;5.17;;
8656;SDS011;4366;50.764;7.184;2023-09-30T08:05:27;8.40;;;5.23;;
8656;SDS011;4366;50.764;7.184;2023-09-30T08:10:29;6.70;;;4.80;;
8656;SDS011;4366;50.764;7.184;2023-09-30T08:15:33;6.27;;;4.70;;
8656;SDS011;4366;50.764;7.184;2023-09-30T08:20:35;8.57;;;4.93;;
8656;SDS011;4366;50.764;7.184;2023-09-30T08:25:38;6.20;;;3.63;;
8656;SDS011;4366;50.764;7.184;2023-09-30T08:30:39;5.87;;;4.50;;
8656;SDS011;4366;50.764;7.184;2023-09-30T08:35:41;8.53;;;4.47;;
8656;SDS011;4366;50.764;7.184;2023-09-30T08:40:44;6.17;;;3.63;;
8656;SDS011;4366;50.764;7.184;2023-09-30T08:45:45;6.60;;;4.70;;
8656;SDS011;4366;50.764;7.184;2023-09-30T08:50:53;5.60;;;3.80;;
8656;SDS011;4366;50.764;7.184;2023-09-30T08:55:56;5.10;;;4.40;;
8656;SDS011;4366;50.764;7.184;2023-09-30T09:01:00;6.20;;;4.20;;
8656;SDS011;4366;50.764;7.184;2023-09-30T09:06:03;4.25;;;3.85;;
8656;SDS011;4366;50.764;7.184;2023-09-30T09:11:05;3.67;;;3.38;;
8656;SDS011;4366;50.764;7.184;2023-09-30T09:16:07;6.03;;;4.22;;
8656;SDS011;4366;50.764;7.184;2023-09-30T09:21:10;4.40;;;3.90;;
8656;SDS011;4366;50.764;7.184;2023-09-30T09:31:29;4.55;;;3.13;;
8656;SDS011;4366;50.764;7.184;2023-09-30T09:36:41;5.22;;;3.42;;
8656;SDS011;4366;50.764;7.184;2023-09-30T09:41:51;5.20;;;3.85;;
8656;SDS011;4366;50.764;7.184;2023-09-30T09:46:53;5.30;;;3.93;;
8656;SDS011;4366;50.764;7.184;2023-09-30T09:51:55;4.90;;;3.87;;
8656;SDS011;4366;50.764;7.184;2023-09-30T09:56:57;5.57;;;3.90;;
8656;SDS011;4366;50.764;7.184;2023-09-30T10:02:03;4.57;;;3.97;;
8656;SDS011;4366;50.764;7.184;2023-09-30T10:07:21;5.90;;;3.77;;
8656;SDS011;4366;50.764;7.184;2023-09-30T10:12:27;4.37;;;3.57;;
8656;SDS011;4366;50.764;7.184;2023-09-30T10:39:01;4.10;;;3.60;;
8656;SDS011;4366;50.764;7.184;2023-09-30T10:54:32;3.50;;;2.97;;
8656;SDS011;4366;50.764;7.184;2023-09-30T10:59:35;5.67;;;2.90;;
8656;SDS011;4366;50.764;7.184;2023-09-30T11:04:55;3.80;;;2.97;;
8656;SDS011;4366;50.764;7.184;2023-09-30T11:09:57;4.17;;;2.47;;
8656;SDS011;4366;50.764;7.184;2023-09-30T11:15:03;2.97;;;2.30;;
8656;SDS011;4366;50.764;7.184;2023-09-30T11:20:06;3.73;;;2.47;;
8656;SDS011;4366;50.764;7.184;2023-09-30T11:25:14;2.87;;;2.63;;
8656;SDS011;4366;50.764;7.184;2023-09-30T11:30:19;3.20;;;2.23;;
8656;SDS011;4366;50.764;7.184;2023-09-30T11:35:22;2.30;;;2.10;;
8656;SDS011;4366;50.764;7.184;2023-09-30T11:40:24;2.17;;;2.03;;
8656;SDS011;4366;50.764;7.184;2023-09-30T11:45:26;3.03;;;2.47;;
8656;SDS011;4366;50.764;7.184;2023-09-30T11:50:44;2.87;;;2.23;;
8656;SDS011;4366;50.764;7.184;2023-09-30T11:55:47;1.90;;;1.70;;
8656;SDS011;4366;50.764;7.184;2023-09-30T12:00:49;2.40;;;1.90;;
8656;SDS011;4366;50.764;7.184;2023-09-30T12:05:54;2.63;;;2.10;;
8656;SDS011;4366;50.764;7.184;2023-09-30T12:10:56;2.83;;;2.00;;
8656;SDS011;4366;50.764;7.184;2023-09-30T12:15:58;1.90;;;1.80;;
8656;SDS011;4366;50.764;7.184;2023-09-30T12:21:00;1.87;;;1.77;;
8656;SDS011;4366;50.764;7.184;2023-09-30T12:26:02;2.00;;;1.47;;
8656;SDS011;4366;50.764;7.184;2023-09-30T12:31:15;1.50;;;1.40;;
8656;SDS011;4366;50.764;7.184;2023-09-30T12:36:20;1.50;;;1.40;;
8656;SDS011;4366;50.764;7.184;2023-09-30T12:41:22;2.43;;;2.00;;
8656;SDS011;4366;50.764;7.184;2023-09-30T12:46:24;1.93;;;1.53;;
8656;SDS011;4366;50.764;7.184;2023-09-30T12:51:27;1.60;;;1.50;;
8656;SDS011;4366;50.764;7.184;2023-09-30T12:56:29;1.57;;;1.47;;
8656;SDS011;4366;50.764;7.184;2023-09-30T13:01:31;4.00;;;1.87;;
8656;SDS011;4366;50.764;7.184;2023-09-30T13:06:36;3.30;;;1.63;;
8656;SDS011;4366;50.764;7.184;2023-09-30T13:11:38;1.43;;;1.33;;
8656;SDS011;4366;50.764;7.184;2023-09-30T13:16:39;2.33;;;1.87;;
8656;SDS011;4366;50.764;7.184;2023-09-30T13:21:41;1.80;;;1.70;;
8656;SDS011;4366;50.764;7.184;2023-09-30T13:26:43;1.70;;;1.60;;
8656;SDS011;4366;50.764;7.184;2023-09-30T13:31:46;2.83;;;2.20;;
8656;SDS011;4366;50.764;7.184;2023-09-30T13:36:47;2.77;;;1.67;;
8656;SDS011;4366;50.764;7.184;2023-09-30T13:41:49;2.27;;;1.57;;
8656;SDS011;4366;50.764;7.184;2023-09-30T13:46:51;3.30;;;2.10;;
8656;SDS011;4366;50.764;7.184;2023-09-30T13:51:53;3.07;;;1.77;;
8656;SDS011;4366;50.764;7.184;2023-09-30T13:56:56;1.93;;;1.60;;
8656;SDS011;4366;50.764;7.184;2023-09-30T14:01:58;1.70;;;1.60;;
8656;SDS011;4366;50.764;7.184;2023-09-30T14:07:00;1.40;;;1.30;;
8656;SDS011;4366;50.764;7.184;2023-09-30T14:12:02;1.23;;;1.17;;
8656;SDS011;4366;50.764;7.184;2023-09-30T14:17:06;1.50;;;1.40;;
8656;SDS011;4366;50.764;7.184;2023-09-30T14:22:12;1.90;;;1.63;;
8656;SDS011;4366;50.764;7.184;2023-09-30T14:27:13;1.93;;;1.30;;
8656;SDS011;4366;50.764;7.184;2023-09-30T14:32:16;2.07;;;1.33;;
8656;SDS011;4366;50.764;7.184;2023-09-30T14:37:18;1.30;;;1.20;;
8656;SDS011;4366;50.764;7.184;2023-09-30T14:42:20;3.83;;;2.30;;
8656;SDS011;4366;50.764;7.184;2023-09-30T14:47:22;2.30;;;1.80;;
8656;SDS011;4366;50.764;7.184;2023-09-30T14:52:24;1.70;;;1.60;;
8656;SDS011;4366;50.764;7.184;2023-09-30T14:57:27;2.87;;;1.67;;
8656;SDS011;4366;50.764;7.184;2023-09-30T15:02:30;1.67;;;1.57;;
8656;SDS011;4366;50.764;7.184;2023-09-30T15:07:32;3.70;;;2.20;;
8656;SDS011;4366;50.764;7.184;2023-09-30T15:12:34;3.97;;;1.80;;
8656;SDS011;4366;50.764;7.184;2023-09-30T15:17:35;2.10;;;1.90;;
8656;SDS011;4366;50.764;7.184;2023-09-30T15:22:37;3.30;;;2.20;;
8656;SDS011;4366;50.764;7.184;2023-09-30T15:27:39;2.30;;;1.93;;
8656;SDS011;4366;50.764;7.184;2023-09-30T15:32:41;1.90;;;1.80;;
8656;SDS011;4366;50.764;7.184;2023-09-30T15:37:42;3.13;;;2.00;;
8656;SDS011;4366;50.764;7.184;2023-09-30T15:42:44;2.00;;;1.90;;
8656;SDS011;4366;50.764;7.184;2023-09-30T15:47:47;3.07;;;2.17;;
8656;SDS011;4366;50.764;7.184;2023-09-30T15:52:49;2.53;;;1.87;;
8656;SDS011;4366;50.764;7.184;2023-09-30T15:57:51;3.33;;;2.83;;
8656;SDS011;4366;50.764;7.184;2023-09-30T16:02:52;3.13;;;2.90;;
8656;SDS011;4366;50.764;7.184;2023-09-30T16:07:54;2.17;;;2.07;;
8656;SDS011;4366;50.764;7.184;2023-09-30T16:12:56;1.90;;;1.80;;
8656;SDS011;4366;50.764;7.184;2023-09-30T16:17:58;2.10;;;1.90;;
8656;SDS011;4366;50.764;7.184;2023-09-30T16:23:00;2.50;;;1.87;;
8656;SDS011;4366;50.764;7.184;2023-09-30T16:28:01;2.30;;;2.00;;
8656;SDS011;4366;50.764;7.184;2023-09-30T16:33:03;2.40;;;2.00;;
8656;SDS011;4366;50.764;7.184;2023-09-30T16:38:05;2.33;;;1.90;;
8656;SDS011;4366;50.764;7.184;2023-09-30T16:43:07;2.03;;;1.83;;
8656;SDS011;4366;50.764;7.184;2023-09-30T16:48:09;2.30;;;2.03;;
8656;SDS011;4366;50.764;7.184;2023-09-30T16:53:11;2.03;;;1.67;;
8656;SDS011;4366;50.764;7.184;2023-09-30T16:58:13;3.30;;;2.40;;
8656;SDS011;4366;50.764;7.184;2023-09-30T17:03:15;2.30;;;2.00;;
8656;SDS011;4366;50.764;7.184;2023-09-30T17:08:17;3.03;;;2.60;;
8656;SDS011;4366;50.764;7.184;2023-09-30T17:13:19;2.50;;;2.00;;
8656;SDS011;4366;50.764;7.184;2023-09-30T17:18:23;2.30;;;2.10;;
8656;SDS011;4366;50.764;7.184;2023-09-30T17:23:24;3.63;;;2.10;;
8656;SDS011;4366;50.764;7.184;2023-09-30T17:28:26;2.10;;;2.00;;
8656;SDS011;4366;50.764;7.184;2023-09-30T17:33:28;2.70;;;2.37;;
8656;SDS011;4366;50.764;7.184;2023-09-30T17:38:31;2.83;;;2.30;;
8656;SDS011;4366;50.764;7.184;2023-09-30T17:43:34;3.60;;;2.83;;
8656;SDS011;4366;50.764;7.184;2023-09-30T17:48:36;2.00;;;1.87;;
8656;SDS011;4366;50.764;7.184;2023-09-30T17:53:38;3.00;;;2.50;;
8656;SDS011;4366;50.764;7.184;2023-09-30T17:58:40;2.50;;;2.23;;
8656;SDS011;4366;50.764;7.184;2023-09-30T18:03:42;2.80;;;2.40;;
8656;SDS011;4366;50.764;7.184;2023-09-30T18:08:47;4.97;;;2.63;;
8656;SDS011;4366;50.764;7.184;2023-09-30T18:13:49;4.73;;;3.10;;
8656;SDS011;4366;50.764;7.184;2023-09-30T18:18:53;2.77;;;2.53;;
8656;SDS011;4366;50.764;7.184;2023-09-30T18:24:03;2.80;;;2.40;;
8656;SDS011;4366;50.764;7.184;2023-09-30T18:29:04;3.10;;;2.80;;
8656;SDS011;4366;50.764;7.184;2023-09-30T18:34:06;3.10;;;2.73;;
8656;SDS011;4366;50.764;7.184;2023-09-30T18:39:09;2.97;;;2.67;;
8656;SDS011;4366;50.764;7.184;2023-09-30T18:44:26;3.10;;;2.80;;
8656;SDS011;4366;50.764;7.184;2023-09-30T18:49:28;4.17;;;3.00;;
8656;SDS011;4366;50.764;7.184;2023-09-30T18:54:30;3.53;;;2.93;;
8656;SDS011;4366;50.764;7.184;2023-09-30T18:59:32;4.83;;;2.60;;
8656;SDS011;4366;50.764;7.184;2023-09-30T19:04:34;3.87;;;2.97;;
8656;SDS011;4366;50.764;7.184;2023-09-30T19:09:36;3.63;;;3.00;;
8656;SDS011;4366;50.764;7.184;2023-09-30T19:14:38;3.47;;;2.83;;
8656;SDS011;4366;50.764;7.184;2023-09-30T19:19:43;4.07;;;2.97;;
8656;SDS011;4366;50.764;7.184;2023-09-30T19:24:44;4.80;;;3.13;;
8656;SDS011;4366;50.764;7.184;2023-09-30T19:29:49;3.43;;;2.90;;
8656;SDS011;4366;50.764;7.184;2023-09-30T19:34:50;4.80;;;3.37;;
8656;SDS011;4366;50.764;7.184;2023-09-30T19:39:52;3.20;;;2.90;;
8656;SDS011;4366;50.764;7.184;2023-09-30T19:44:55;3.60;;;2.93;;
8656;SDS011;4366;50.764;7.184;2023-09-30T19:49:56;3.53;;;3.23;;
8656;SDS011;4366;50.764;7.184;2023-09-30T19:55:04;6.90;;;3.40;;
8656;SDS011;4366;50.764;7.184;2023-09-30T20:00:07;4.57;;;3.10;;
8656;SDS011;4366;50.764;7.184;2023-09-30T20:05:10;4.03;;;3.50;;
8656;SDS011;4366;50.764;7.184;2023-09-30T20:10:12;7.03;;;3.53;;
8656;SDS011;4366;50.764;7.184;2023-09-30T20:15:13;3.33;;;3.03;;
8656;SDS011;4366;50.764;7.184;2023-09-30T20:20:15;4.80;;;3.43;;
8656;SDS011;4366;50.764;7.184;2023-09-30T20:25:19;4.00;;;3.10;;
8656;SDS011;4366;50.764;7.184;2023-09-30T20:30:20;4.40;;;3.17;;
8656;SDS011;4366;50.764;7.184;2023-09-30T20:35:23;4.10;;;3.40;;
8656;SDS011;4366;50.764;7.184;2023-09-30T20:40:25;5.83;;;3.57;;
8656;SDS011;4366;50.764;7.184;2023-09-30T20:45:32;4.63;;;3.43;;
8656;SDS011;4366;50.764;7.184;2023-09-30T20:50:34;3.87;;;3.50;;
8656;SDS011;4366;50.764;7.184;2023-09-30T20:55:35;4.67;;;3.73;;
8656;SDS011;4366;50.764;7.184;2023-09-30T21:00:37;5.20;;;3.90;;
8656;SDS011;4366;50.764;7.184;2023-09-30T21:05:41;4.93;;;3.67;;
8656;SDS011;4366;50.764;7.184;2023-09-30T21:10:44;3.23;;;2.93;;
8656;SDS011;4366;50.764;7.184;2023-09-30T21:15:45;3.80;;;3.50;;
8656;SDS011;4366;50.764;7.184;2023-09-30T21:20:47;3.50;;;3.20;;
8656;SDS011;4366;50.764;7.184;2023-09-30T21:25:49;4.27;;;3.70;;
8656;SDS011;4366;50.764;7.184;2023-09-30T21:30:51;4.20;;;3.47;;
8656;SDS011;4366;50.764;7.184;2023-09-30T21:35:54;4.30;;;3.40;;
8656;SDS011;4366;50.764;7.184;2023-09-30T21:40:57;4.87;;;3.80;;
8656;SDS011;4366;50.764;7.184;2023-09-30T21:45:58;4.23;;;3.83;;
8656;SDS011;4366;50.764;7.184;2023-09-30T21:51:01;6.27;;;4.17;;
8656;SDS011;4366;50.764;7.184;2023-09-30T21:56:03;5.83;;;3.63;;
8656;SDS011;4366;50.764;7.184;2023-09-30T22:01:05;4.73;;;3.80;;
8656;SDS011;4366;50.764;7.184;2023-09-30T22:06:07;5.03;;;3.60;;
8656;SDS011;4366;50.764;7.184;2023-09-30T22:11:09;3.90;;;3.43;;
8656;SDS011;4366;50.764;7.184;2023-09-30T22:16:11;3.73;;;3.43;;
8656;SDS011;4366;50.764;7.184;2023-09-30T22:21:13;4.53;;;3.57;;
8656;SDS011;4366;50.764;7.184;2023-09-30T22:26:15;3.80;;;3.50;;
8656;SDS011;4366;50.764;7.184;2023-09-30T22:31:17;4.17;;;3.77;;
8656;SDS011;4366;50.764;7.184;2023-09-30T22:36:19;6.10;;;4.07;;
8656;SDS011;4366;50.764;7.184;2023-09-30T22:41:27;5.03;;;3.30;;
8656;SDS011;4366;50.764;7.184;2023-09-30T22:46:29;4.67;;;3.87;;
8656;SDS011;4366;50.764;7.184;2023-09-30T22:51:32;5.37;;;3.77;;
8656;SDS011;4366;50.764;7.184;2023-09-30T22:56:34;4.53;;;3.73;;
8656;SDS011;4366;50.764;7.184;2023-09-30T23:01:36;3.73;;;3.33;;
8656;SDS011;4366;50.764;7.184;2023-09-30T23:06:38;4.53;;;3.70;;
8656;SDS011;4366;50.764;7.184;2023-09-30T23:11:42;5.23;;;3.73;;
8656;SDS011;4366;50.764;7.184;2023-09-30T23:16:44;3.63;;;3.33;;
8656;SDS011;4366;50.764;7.184;2023-09-30T23:21:49;4.40;;;3.60;;
8656;SDS011;4366;50.764;7.184;2023-09-30T23:26:50;5.90;;;3.80;;
8656;SDS011;4366;50.764;7.184;2023-09-30T23:31:52;4.53;;;4.10;;
8656;SDS011;4366;50.764;7.184;2023-09-30T23:36:54;5.20;;;3.90;;
8656;SDS011;4366;50.764;7.184;2023-09-30T23:42:00;5.57;;;3.93;;
8656;SDS011;4366;50.764;7.184;2023-09-30T23:47:02;4.33;;;3.93;;
8656;SDS011;4366;50.764;7.184;2023-09-30T23:52:05;6.33;;;3.93;;
8656;SDS011;4366;50.764;7.184;2023-09-30T23:57:07;6.03;;;3.93;;
